createdAt,value
2017-07-05T00:00:06.840Z,81.08
2017-07-05T00:02:36.446Z,81.01
2017-07-05T00:05:06.227Z,81.09
2017-07-05T00:07:35.954Z,81.56
2017-07-05T00:10:05.733Z,81.88
2017-07-05T00:12:35.474Z,81.94
2017-07-05T00:15:05.229Z,81.90
2017-07-05T00:17:34.952Z,81.75
2017-07-05T00:20:04.771Z,81.77
2017-07-05T00:22:34.486Z,82.15
2017-07-05T00:25:04.255Z,82.40
2017-07-05T00:27:33.846Z,82.58
2017-07-05T00:30:03.637Z,82.59
2017-07-05T00:32:33.167Z,82.41
2017-07-05T00:35:03.092Z,82.21
2017-07-05T00:37:32.817Z,82.38
2017-07-05T00:40:02.612Z,82.57
2017-07-05T00:42:32.332Z,82.74
2017-07-05T00:45:02.344Z,82.65
2017-07-05T00:47:32.046Z,82.77
2017-07-05T00:50:01.906Z,82.95
2017-07-05T00:52:31.621Z,82.82
2017-07-05T00:55:01.355Z,82.99
2017-07-05T00:57:31.096Z,83.21
2017-07-05T01:00:00.814Z,83.65
2017-07-05T01:02:30.370Z,83.71
2017-07-05T01:05:00.229Z,83.94
2017-07-05T01:07:30.043Z,83.94
2017-07-05T01:09:59.791Z,83.86
2017-07-05T01:12:29.542Z,83.92
2017-07-05T01:14:59.413Z,83.97
2017-07-05T01:17:29.153Z,83.86
2017-07-05T01:19:58.889Z,84.02
2017-07-05T01:22:28.609Z,84.12
2017-07-05T01:24:58.921Z,84.03
2017-07-05T01:27:28.654Z,84.06
2017-07-05T01:29:58.374Z,83.76
2017-07-05T01:32:28.112Z,84.12
2017-07-05T01:34:57.842Z,84.33
2017-07-05T01:37:27.580Z,84.37
2017-07-05T01:39:57.310Z,84.53
2017-07-05T01:42:27.095Z,84.59
2017-07-05T01:44:56.842Z,84.88
2017-07-05T01:47:26.574Z,85.06
2017-07-05T01:49:55.966Z,85.31
2017-07-05T01:52:25.501Z,85.20
2017-07-05T01:54:55.249Z,85.17
2017-07-05T01:57:24.631Z,85.26
2017-07-05T01:59:54.373Z,85.44
2017-07-05T02:02:24.106Z,85.80
2017-07-05T02:04:53.837Z,85.92
2017-07-05T02:07:23.563Z,86.02
2017-07-05T02:09:53.319Z,85.89
2017-07-05T02:12:23.025Z,85.91
2017-07-05T02:14:52.765Z,85.81
2017-07-05T02:17:22.483Z,85.81
2017-07-05T02:19:52.213Z,85.98
2017-07-05T02:22:21.952Z,86.10
2017-07-05T02:24:51.685Z,86.17
2017-07-05T02:27:21.409Z,86.22
2017-07-05T02:29:51.160Z,86.21
2017-07-05T02:32:20.877Z,86.29
2017-07-05T02:34:50.609Z,85.78
2017-07-05T02:37:20.361Z,85.95
2017-07-05T02:39:50.081Z,86.09
2017-07-05T02:42:19.834Z,86.19
2017-07-05T02:44:49.560Z,86.34
2017-07-05T02:47:19.289Z,86.28
2017-07-05T02:49:49.041Z,86.40
2017-07-05T02:52:18.767Z,86.50
2017-07-05T02:54:48.494Z,86.56
2017-07-05T02:57:18.236Z,86.60
2017-07-05T02:59:48.013Z,86.57
2017-07-05T03:02:17.574Z,86.59
2017-07-05T03:04:47.302Z,86.63
2017-07-05T03:07:17.041Z,86.59
2017-07-05T03:09:46.771Z,86.55
2017-07-05T03:12:16.606Z,86.38
2017-07-05T03:14:46.363Z,86.61
2017-07-05T03:17:15.945Z,86.67
2017-07-05T03:19:45.670Z,86.94
2017-07-05T03:22:15.429Z,86.87
2017-07-05T03:24:45.166Z,86.73
2017-07-05T03:27:14.890Z,86.74
2017-07-05T03:29:44.617Z,86.75
2017-07-05T03:32:14.470Z,86.73
2017-07-05T03:34:44.189Z,86.64
2017-07-05T03:37:13.898Z,86.71
2017-07-05T03:39:43.654Z,86.59
2017-07-05T03:42:13.397Z,86.36
2017-07-05T03:44:43.144Z,86.33
2017-07-05T03:47:12.944Z,86.40
2017-07-05T03:49:42.661Z,86.30
2017-07-05T03:52:12.410Z,86.33
2017-07-05T03:54:42.149Z,86.21
2017-07-05T03:57:11.964Z,86.17
2017-07-05T03:59:41.681Z,86.11
2017-07-05T04:02:11.687Z,86.18
2017-07-05T04:04:41.422Z,86.04
2017-07-05T04:07:11.235Z,85.93
2017-07-05T04:09:40.968Z,85.89
2017-07-05T04:12:10.732Z,85.61
2017-07-05T04:14:40.499Z,85.24
2017-07-05T04:17:10.241Z,84.97
2017-07-05T04:19:42.054Z,84.87
2017-07-05T04:22:12.281Z,84.61
2017-07-05T04:24:42.662Z,84.32
2017-07-05T04:27:12.381Z,84.09
2017-07-05T04:29:42.131Z,83.72
2017-07-05T04:32:11.855Z,83.53
2017-07-05T04:34:41.613Z,83.02
2017-07-05T04:37:11.348Z,82.63
2017-07-05T04:39:41.075Z,82.50
2017-07-05T04:42:10.809Z,81.96
2017-07-05T04:44:40.549Z,81.27
2017-07-05T04:47:10.307Z,80.82
2017-07-05T04:49:40.050Z,80.41
2017-07-05T04:52:09.765Z,80.22
2017-07-05T04:54:39.515Z,79.68
2017-07-05T04:57:09.246Z,81.36
2017-07-05T04:59:39.013Z,80.90
2017-07-05T05:02:08.756Z,80.32
2017-07-05T05:04:38.494Z,79.86
2017-07-05T05:07:08.233Z,79.64
2017-07-05T05:09:37.990Z,78.99
2017-07-05T05:12:07.777Z,78.35
2017-07-05T05:14:37.514Z,77.41
2017-07-05T05:17:07.154Z,77.15
2017-07-05T05:19:36.858Z,77.26
2017-07-05T05:22:06.601Z,76.98
2017-07-05T05:24:36.335Z,76.75
2017-07-05T05:27:06.062Z,76.50
2017-07-05T05:29:35.781Z,76.16
2017-07-05T05:32:05.233Z,75.56
2017-07-05T05:34:34.690Z,74.93
2017-07-05T05:37:04.437Z,74.84
2017-07-05T05:39:33.895Z,74.49
2017-07-05T05:42:03.364Z,73.82
2017-07-05T05:44:32.818Z,73.03
2017-07-05T05:47:02.277Z,71.92
2017-07-05T05:49:31.723Z,71.82
2017-07-05T05:52:01.178Z,71.64
2017-07-05T05:54:30.743Z,70.95
2017-07-05T05:57:00.203Z,70.72
2017-07-05T05:59:29.683Z,70.63
2017-07-05T06:01:59.108Z,69.93
2017-07-05T06:07:12.327Z,69.24
2017-07-05T06:09:41.790Z,69.04
2017-07-05T06:12:11.248Z,68.94
2017-07-05T06:14:40.827Z,68.46
2017-07-05T06:17:10.286Z,67.42
2017-07-05T06:19:41.350Z,66.80
2017-07-05T06:22:10.805Z,64.83
2017-07-05T06:24:40.266Z,64.42
2017-07-05T06:27:09.724Z,63.80
2017-07-05T06:29:39.181Z,63.10
2017-07-05T06:32:08.636Z,63.13
2017-07-05T06:34:38.094Z,62.76
2017-07-05T06:37:07.570Z,61.50
2017-07-05T06:39:37.042Z,61.59
2017-07-05T06:42:06.498Z,61.00
2017-07-05T06:44:35.957Z,61.00
2017-07-05T06:47:05.438Z,61.40
2017-07-05T06:49:34.869Z,60.76
2017-07-05T06:52:04.323Z,60.36
2017-07-05T06:54:33.787Z,59.99
2017-07-05T06:57:03.223Z,59.90
2017-07-05T06:59:32.683Z,59.59
2017-07-05T07:02:02.222Z,59.37
2017-07-05T07:04:31.664Z,58.27
2017-07-05T07:07:01.133Z,57.52
2017-07-05T07:09:30.570Z,57.54
2017-07-05T07:12:00.014Z,57.06
2017-07-05T07:14:29.471Z,56.53
2017-07-05T07:16:58.926Z,55.78
2017-07-05T07:19:28.432Z,56.02
2017-07-05T07:21:57.889Z,57.02
2017-07-05T07:24:27.334Z,54.90
2017-07-05T07:26:56.781Z,55.39
2017-07-05T07:29:26.241Z,54.41
2017-07-05T07:31:55.689Z,54.94
2017-07-05T07:34:25.146Z,54.25
2017-07-05T07:36:54.649Z,53.29
2017-07-05T07:39:24.100Z,53.47
2017-07-05T07:41:53.541Z,52.93
2017-07-05T07:44:22.998Z,52.78
2017-07-05T07:46:52.473Z,51.88
2017-07-05T07:49:21.944Z,51.72
2017-07-05T07:51:51.439Z,51.54
2017-07-05T07:54:20.878Z,51.62
2017-07-05T07:56:50.330Z,50.87
2017-07-05T07:59:19.464Z,50.86
2017-07-05T08:01:48.914Z,50.83
2017-07-05T08:04:18.353Z,51.59
2017-07-05T08:06:47.806Z,50.03
2017-07-05T08:09:18.033Z,49.39
2017-07-05T08:11:47.498Z,49.34
2017-07-05T08:14:16.977Z,49.94
2017-07-05T08:16:46.425Z,48.76
2017-07-05T08:19:15.871Z,48.64
2017-07-05T08:21:45.312Z,48.02
2017-07-05T08:24:14.768Z,48.31
2017-07-05T08:26:44.214Z,49.23
2017-07-05T08:29:13.676Z,47.64
2017-07-05T08:31:43.127Z,47.71
2017-07-05T08:34:12.576Z,46.96
2017-07-05T08:36:42.021Z,47.24
2017-07-05T08:39:11.472Z,46.10
2017-07-05T08:41:40.932Z,45.42
2017-07-05T08:44:10.373Z,45.49
2017-07-05T08:46:39.830Z,45.44
2017-07-05T08:49:09.288Z,43.07
2017-07-05T08:51:38.728Z,43.67
2017-07-05T08:54:08.178Z,44.36
2017-07-05T08:56:37.635Z,43.48
2017-07-05T08:59:07.098Z,42.67
2017-07-05T09:01:36.546Z,41.99
2017-07-05T09:04:05.994Z,40.94
2017-07-05T09:06:35.462Z,41.08
2017-07-05T09:09:04.393Z,41.59
2017-07-05T09:11:33.857Z,42.00
2017-07-05T09:14:03.350Z,41.85
2017-07-05T09:16:32.794Z,40.52
2017-07-05T09:19:02.253Z,41.98
2017-07-05T09:21:31.722Z,40.87
2017-07-05T09:24:01.187Z,39.50
2017-07-05T09:26:30.298Z,39.91
2017-07-05T09:28:59.762Z,40.49
2017-07-05T09:31:29.255Z,39.34
2017-07-05T09:33:58.717Z,38.72
2017-07-05T09:36:28.177Z,38.68
2017-07-05T09:38:57.627Z,38.73
2017-07-05T09:41:27.102Z,37.82
2017-07-05T09:43:56.595Z,36.63
2017-07-05T09:46:26.274Z,36.45
2017-07-05T09:48:55.736Z,35.98
2017-07-05T09:51:25.207Z,36.25
2017-07-05T09:53:54.684Z,37.07
2017-07-05T09:56:24.142Z,37.56
2017-07-05T09:58:53.591Z,36.18
2017-07-05T10:01:23.040Z,36.19
2017-07-05T10:03:52.563Z,36.20
2017-07-05T10:06:22.030Z,33.20
2017-07-05T10:08:51.513Z,34.32
2017-07-05T10:11:20.972Z,33.57
2017-07-05T10:13:50.420Z,34.09
2017-07-05T10:16:19.872Z,33.61
2017-07-05T10:18:49.310Z,34.77
2017-07-05T10:21:18.761Z,33.24
2017-07-05T10:23:48.209Z,33.65
2017-07-05T10:26:17.698Z,33.47
2017-07-05T10:28:47.130Z,34.20
2017-07-05T10:31:16.594Z,32.76
2017-07-05T10:33:46.041Z,32.18
2017-07-05T10:36:15.505Z,31.92
2017-07-05T10:38:44.945Z,32.57
2017-07-05T10:41:14.397Z,32.95
2017-07-05T10:43:43.848Z,33.67
2017-07-05T10:46:13.294Z,32.45
2017-07-05T10:48:42.739Z,32.68
2017-07-05T10:51:12.181Z,32.20
2017-07-05T10:53:41.646Z,31.55
2017-07-05T10:56:11.115Z,31.29
2017-07-05T10:58:40.589Z,31.59
2017-07-05T11:01:10.036Z,31.93
2017-07-05T11:03:39.503Z,31.73
2017-07-05T11:06:08.958Z,31.80
2017-07-05T11:08:38.406Z,32.02
2017-07-05T11:11:07.870Z,31.54
2017-07-05T11:13:37.313Z,30.88
2017-07-05T11:16:06.765Z,30.35
2017-07-05T11:18:36.225Z,29.61
2017-07-05T11:21:05.693Z,30.08
2017-07-05T11:23:35.177Z,31.64
2017-07-05T11:26:04.681Z,30.56
2017-07-05T11:28:34.133Z,30.89
2017-07-05T11:31:03.577Z,29.88
2017-07-05T11:33:33.095Z,31.37
2017-07-05T11:36:02.781Z,30.22
2017-07-05T11:38:32.237Z,30.55
2017-07-05T11:41:01.699Z,30.75
2017-07-05T11:43:31.148Z,30.54
2017-07-05T11:46:00.628Z,30.84
2017-07-05T11:48:30.078Z,30.55
2017-07-05T11:50:59.527Z,30.91
2017-07-05T11:53:28.990Z,30.18
2017-07-05T11:55:58.437Z,29.16
2017-07-05T11:58:27.886Z,29.84
2017-07-05T12:00:57.342Z,28.90
2017-07-05T12:03:26.794Z,29.47
2017-07-05T12:05:56.269Z,30.53
2017-07-05T12:08:25.705Z,29.12
2017-07-05T12:10:55.188Z,29.75
2017-07-05T12:13:24.682Z,30.78
2017-07-05T12:15:54.165Z,29.74
2017-07-05T12:18:23.645Z,30.07
2017-07-05T12:20:53.086Z,30.04
2017-07-05T12:23:22.545Z,30.10
2017-07-05T12:25:52.021Z,28.89
2017-07-05T12:28:21.469Z,29.25
2017-07-05T12:30:50.913Z,30.23
2017-07-05T12:33:20.357Z,28.11
2017-07-05T12:35:49.813Z,24.38
2017-07-05T12:38:19.260Z,24.58
2017-07-05T12:40:48.702Z,24.31
2017-07-05T12:43:18.015Z,24.21
2017-07-05T12:45:47.447Z,23.07
2017-07-05T12:48:16.930Z,21.99
2017-07-05T12:50:46.360Z,22.57
2017-07-05T12:53:15.822Z,21.08
2017-07-05T12:55:45.266Z,21.52
2017-07-05T12:58:14.723Z,20.56
2017-07-05T13:00:44.173Z,21.20
2017-07-05T13:03:13.648Z,21.03
2017-07-05T13:05:43.077Z,21.43
2017-07-05T13:08:12.359Z,20.09
2017-07-05T13:10:41.879Z,21.71
2017-07-05T13:13:11.309Z,21.52
2017-07-05T13:15:40.751Z,23.24
2017-07-05T13:18:10.212Z,21.53
2017-07-05T13:20:39.675Z,20.27
2017-07-05T13:23:09.124Z,20.85
2017-07-05T13:25:38.570Z,21.37
2017-07-05T13:28:08.023Z,21.93
2017-07-05T13:30:37.469Z,19.88
2017-07-05T13:33:06.937Z,19.57
2017-07-05T13:35:36.441Z,20.71
2017-07-05T13:38:05.887Z,20.69
2017-07-05T13:40:35.319Z,21.09
2017-07-05T13:43:04.766Z,20.97
2017-07-05T13:45:34.215Z,19.77
2017-07-05T13:48:03.675Z,18.35
2017-07-05T13:50:33.155Z,20.63
2017-07-05T13:53:02.607Z,18.80
2017-07-05T13:55:31.845Z,18.43
2017-07-05T13:58:01.293Z,19.05
2017-07-05T14:00:30.771Z,18.95
2017-07-05T14:03:00.221Z,17.51
2017-07-05T14:05:29.681Z,17.80
2017-07-05T14:07:59.182Z,17.62
2017-07-05T14:10:29.306Z,16.90
2017-07-05T14:12:58.783Z,19.17
2017-07-05T14:15:28.494Z,20.08
2017-07-05T14:17:57.965Z,20.47
2017-07-05T14:20:27.397Z,19.79
2017-07-05T14:22:56.853Z,19.02
2017-07-05T14:25:26.313Z,19.49
2017-07-05T14:27:55.774Z,19.79
2017-07-05T14:30:25.245Z,18.52
2017-07-05T14:32:55.537Z,19.15
2017-07-05T14:35:24.994Z,19.07
2017-07-05T14:37:54.436Z,19.11
2017-07-05T14:40:23.931Z,19.34
2017-07-05T14:42:53.367Z,19.28
2017-07-05T14:45:22.857Z,19.27
2017-07-05T14:47:52.382Z,19.35
2017-07-05T14:50:21.875Z,19.45
2017-07-05T14:52:52.209Z,18.54
2017-07-05T14:55:21.719Z,18.29
2017-07-05T14:57:51.182Z,18.64
2017-07-05T15:00:20.741Z,17.53
2017-07-05T15:02:50.241Z,17.34
2017-07-05T15:05:19.691Z,17.97
2017-07-05T15:07:49.469Z,17.93
2017-07-05T15:10:19.252Z,17.46
2017-07-05T15:12:48.777Z,16.78
2017-07-05T15:15:18.343Z,16.35
2017-07-05T15:17:48.084Z,17.75
2017-07-05T15:20:17.535Z,16.56
2017-07-05T15:22:47.458Z,18.59
2017-07-05T15:25:17.333Z,17.07
2017-07-05T15:27:47.428Z,16.84
2017-07-05T15:30:17.406Z,16.33
2017-07-05T15:32:46.880Z,17.26
2017-07-05T15:35:16.515Z,17.29
2017-07-05T15:37:45.975Z,17.67
2017-07-05T15:40:15.448Z,17.73
2017-07-05T15:42:44.897Z,17.06
2017-07-05T15:45:14.091Z,18.13
2017-07-05T15:47:43.921Z,18.73
2017-07-05T15:50:13.405Z,18.53
2017-07-05T15:52:42.841Z,17.53
2017-07-05T15:55:12.366Z,17.98
2017-07-05T15:57:41.886Z,19.03
2017-07-05T16:00:11.354Z,18.85
2017-07-05T16:02:40.777Z,18.06
2017-07-05T16:05:10.305Z,18.86
2017-07-05T16:07:39.741Z,18.04
2017-07-05T16:10:09.228Z,18.15
2017-07-05T16:12:38.680Z,18.05
2017-07-05T16:15:08.262Z,18.69
2017-07-05T16:17:37.709Z,17.08
2017-07-05T16:20:07.226Z,18.22
2017-07-05T16:22:36.658Z,19.08
2017-07-05T16:25:06.127Z,19.05
2017-07-05T16:27:35.590Z,19.68
2017-07-05T16:30:05.039Z,18.79
2017-07-05T16:32:34.510Z,18.51
2017-07-05T16:35:04.145Z,19.55
2017-07-05T16:37:33.584Z,18.43
2017-07-05T16:40:03.067Z,19.12
2017-07-05T16:42:32.511Z,19.41
2017-07-05T16:45:02.046Z,18.81
2017-07-05T16:47:31.498Z,18.24
2017-07-05T16:50:00.960Z,19.44
2017-07-05T16:52:30.405Z,19.98
2017-07-05T16:54:59.862Z,19.16
2017-07-05T16:57:29.321Z,20.04
2017-07-05T16:59:58.774Z,20.55
2017-07-05T17:02:28.229Z,20.58
2017-07-05T17:04:57.685Z,20.93
2017-07-05T17:07:27.133Z,20.38
2017-07-05T17:09:56.589Z,20.46
2017-07-05T17:12:26.044Z,21.07
2017-07-05T17:14:55.363Z,21.24
2017-07-05T17:17:24.813Z,22.85
2017-07-05T17:19:54.262Z,22.78
2017-07-05T17:22:23.364Z,23.66
2017-07-05T17:24:52.805Z,23.11
2017-07-05T17:27:22.382Z,23.19
2017-07-05T17:29:51.638Z,22.41
2017-07-05T17:32:21.082Z,22.14
2017-07-05T17:34:50.565Z,20.98
2017-07-05T17:37:20.073Z,21.83
2017-07-05T17:39:49.520Z,21.43
2017-07-05T17:42:18.984Z,21.05
2017-07-05T17:44:48.434Z,21.73
2017-07-05T17:47:17.865Z,22.61
2017-07-05T17:49:47.329Z,22.20
2017-07-05T17:52:16.936Z,21.82
2017-07-05T17:54:46.376Z,23.46
2017-07-05T17:57:15.833Z,22.45
2017-07-05T17:59:45.270Z,23.24
2017-07-05T18:02:14.749Z,23.04
2017-07-05T18:04:44.216Z,24.10
2017-07-05T18:07:13.760Z,24.47
2017-07-05T18:09:43.205Z,24.72
2017-07-05T18:12:12.683Z,24.72
2017-07-05T18:14:42.130Z,26.04
2017-07-05T18:17:11.594Z,26.71
2017-07-05T18:19:41.081Z,26.84
2017-07-05T18:22:10.525Z,28.21
2017-07-05T18:24:39.997Z,28.94
2017-07-05T18:27:09.482Z,30.95
2017-07-05T18:29:38.910Z,31.52
2017-07-05T18:32:08.374Z,32.24
2017-07-05T18:34:37.835Z,33.29
2017-07-05T18:37:06.957Z,34.57
2017-07-05T18:39:36.411Z,35.14
2017-07-05T18:42:05.902Z,35.68
2017-07-05T18:44:35.341Z,35.97
2017-07-05T18:47:04.716Z,36.61
2017-07-05T18:49:34.161Z,37.10
2017-07-05T18:52:03.601Z,38.07
2017-07-05T18:54:33.053Z,39.36
2017-07-05T18:57:02.531Z,39.83
2017-07-05T18:59:31.975Z,40.43
2017-07-05T19:02:01.447Z,41.26
2017-07-05T19:04:30.889Z,43.40
2017-07-05T19:07:00.331Z,43.31
2017-07-05T19:09:29.790Z,44.37
2017-07-05T19:11:59.233Z,45.50
2017-07-05T19:14:28.702Z,45.99
2017-07-05T19:16:58.174Z,46.78
2017-07-05T19:19:27.618Z,46.62
2017-07-05T19:21:57.175Z,47.23
2017-07-05T19:24:26.626Z,47.36
2017-07-05T19:26:56.084Z,47.80
2017-07-05T19:29:25.527Z,48.48
2017-07-05T19:31:55.029Z,48.82
2017-07-05T19:34:24.530Z,48.90
2017-07-05T19:36:53.962Z,49.56
2017-07-05T19:39:23.422Z,51.68
2017-07-05T19:41:52.915Z,51.74
2017-07-05T19:44:22.349Z,51.49
2017-07-05T19:46:51.798Z,53.48
2017-07-05T19:49:21.257Z,53.81
2017-07-05T19:51:50.709Z,52.58
2017-07-05T19:54:20.238Z,52.36
2017-07-05T19:56:49.902Z,52.72
2017-07-05T19:59:19.362Z,53.15
2017-07-05T20:01:48.815Z,53.45
2017-07-05T20:04:18.312Z,53.93
2017-07-05T20:06:47.762Z,53.45
2017-07-05T20:09:17.249Z,54.16
2017-07-05T20:11:46.722Z,54.91
2017-07-05T20:14:16.183Z,55.00
2017-07-05T20:16:45.633Z,55.27
2017-07-05T20:19:15.086Z,55.47
2017-07-05T20:21:44.572Z,56.54
2017-07-05T20:24:14.041Z,56.46
2017-07-05T20:26:43.500Z,57.33
2017-07-05T20:29:12.953Z,57.81
2017-07-05T20:31:42.489Z,57.06
2017-07-05T20:34:11.583Z,57.46
2017-07-05T20:36:41.050Z,57.44
2017-07-05T20:39:10.518Z,58.26
2017-07-05T20:41:39.962Z,58.16
2017-07-05T20:44:09.425Z,57.95
2017-07-05T20:46:38.876Z,57.92
2017-07-05T20:49:08.370Z,58.66
2017-07-05T20:51:37.817Z,58.91
2017-07-05T20:54:07.300Z,58.46
2017-07-05T20:56:36.767Z,58.92
2017-07-05T20:59:06.246Z,59.45
2017-07-05T21:01:35.704Z,59.67
2017-07-05T21:04:05.222Z,60.73
2017-07-05T21:06:34.685Z,60.68
2017-07-05T21:09:03.564Z,61.26
2017-07-05T21:11:33.018Z,61.48
2017-07-05T21:14:02.466Z,62.61
2017-07-05T21:16:31.928Z,62.06
2017-07-05T21:19:01.417Z,62.67
2017-07-05T21:21:30.966Z,61.53
2017-07-05T21:24:00.420Z,63.82
2017-07-05T21:26:30.063Z,63.92
2017-07-05T21:28:59.505Z,64.29
2017-07-05T21:31:28.978Z,64.67
2017-07-05T21:33:58.464Z,64.81
2017-07-05T21:36:27.584Z,64.82
2017-07-05T21:38:57.130Z,65.12
2017-07-05T21:41:26.275Z,65.48
2017-07-05T21:43:55.734Z,65.56
2017-07-05T21:46:25.189Z,65.88
2017-07-05T21:48:54.659Z,66.22
2017-07-05T21:51:24.164Z,65.87
2017-07-05T21:53:53.612Z,66.77
2017-07-05T21:56:23.092Z,66.79
2017-07-05T21:58:52.561Z,66.51
2017-07-05T22:01:22.014Z,66.92
2017-07-05T22:03:51.476Z,66.79
2017-07-05T22:06:20.319Z,67.13
2017-07-05T22:08:49.850Z,66.98
2017-07-05T22:11:19.354Z,67.54
2017-07-05T22:13:48.856Z,67.89
2017-07-05T22:16:18.194Z,68.11
2017-07-05T22:18:47.646Z,68.39
2017-07-05T22:21:17.112Z,68.10
2017-07-05T22:23:46.571Z,68.79
2017-07-05T22:26:16.044Z,68.43
2017-07-05T22:28:45.500Z,69.03
2017-07-05T22:31:14.953Z,69.62
2017-07-05T22:33:44.417Z,69.99
2017-07-05T22:36:13.895Z,70.48
2017-07-05T22:38:43.218Z,70.89
2017-07-05T22:41:12.340Z,71.01
2017-07-05T22:43:41.785Z,71.18
2017-07-05T22:46:11.061Z,71.29
2017-07-05T22:48:40.537Z,71.56
2017-07-05T22:51:09.995Z,71.17
2017-07-05T22:53:39.444Z,71.45
2017-07-05T22:56:08.916Z,71.16
2017-07-05T22:58:38.209Z,71.26
2017-07-05T23:01:07.680Z,72.24
2017-07-05T23:03:37.139Z,72.51
2017-07-05T23:06:06.591Z,72.75
2017-07-05T23:08:36.044Z,72.59
2017-07-05T23:11:05.505Z,72.65
2017-07-05T23:13:34.964Z,72.59
2017-07-05T23:16:04.411Z,72.40
2017-07-05T23:18:33.881Z,71.81
2017-07-05T23:21:03.321Z,72.71
2017-07-05T23:23:32.765Z,72.94
2017-07-05T23:26:02.227Z,72.38
2017-07-05T23:28:31.674Z,73.57
2017-07-05T23:31:01.129Z,73.99
2017-07-05T23:33:30.577Z,74.31
2017-07-05T23:36:00.017Z,74.37
2017-07-05T23:38:29.465Z,74.43
2017-07-05T23:40:58.901Z,74.26
2017-07-05T23:43:28.333Z,74.59
2017-07-05T23:45:57.773Z,74.38
2017-07-05T23:48:27.225Z,74.34
2017-07-05T23:50:56.690Z,74.37
2017-07-05T23:53:26.233Z,74.12
2017-07-05T23:55:55.669Z,74.38
2017-07-05T23:58:25.106Z,74.96
